Decoded Metar for KPAM (PANAMA CITY in FL, USA) (IATA:PAM) | Meteo·Mobile Aviation Weather
aviador You're here:

KPAM Decoded Metar

PANAMA CITY in FL, USA
Report Time2018-10-22 23:55:00
UTC Time2018-10-23 00:43:34
Flight Rules vfr VFR
Wind120° at 04 kt
W.Decomp.*RWY 13: 4.0 kt HW 0.6 kt LCW
W.Rank120° ranks 27
Current wind is below 120° avg. (6.1)
Visibility9999 m
Phenomena:N/A
Clouds:Broken 210 Hf
Expected CloudBase > 2,800 ft AGL from Temp-Dew spread
Ceiling21,000 ft
Temp22°C (ISA +7)
Dew Point15°C (65% RH)
QNH1022 hPa
Density Alt761 ft
Elevation16 ft
Report Wrong Elevation
Raw Report
KPAM 222355Z AUTO 12004KT 10SM BKN210 22/15 A3017 RMK AO2 SLP216
WND DATA ESTMD T02160152 10248 20138 402500149 53005=

Extra information for KPAM:More info

Metar Taf Metar & Taf Last 4 Metars F.Rules Stats Wind Profile Meteogram Temp Stats Airport Information Weather charts Add Link Nearby VenuesMetar ALERT Operation Metar Decoded Social comments

AIRNAV info for KPAM